EDT,Max TemperatureF,Mean TemperatureF,Min TemperatureF,Max Dew PointF,MeanDew PointF,Min DewpointF,Max Humidity, Mean Humidity, Min Humidity, Max Sea Level PressureIn, Mean Sea Level PressureIn, Min Sea Level PressureIn, Max VisibilityMiles, Mean VisibilityMiles, Min VisibilityMiles, Max Wind SpeedMPH, Mean Wind SpeedMPH, Max Gust SpeedMPH,PrecipitationIn, CloudCover, Events, WindDirDegrees
2013-6-1,86,75,64,68,64,59,100,72,40,30.16,30.11,30.05,10,10,7,14,7,21,0.00,0,,216
2013-6-2,82,75,68,70,66,63,100,75,51,30.07,30.00,29.95,10,10,2,16,9,21,0.53,4,Rain-Thunderstorm,208
2013-6-3,78,70,62,72,69,63,100,94,69,29.98,29.92,29.87,10,9,1,9,5,17,0.34,6,Rain-Thunderstorm,223
2013-6-4,77,68,60,66,62,59,100,83,54,30.14,30.07,29.98,10,8,0,12,2,16,0.01,5,Fog,66
2013-6-5,78,68,59,66,60,55,100,75,54,30.18,30.12,30.06,10,10,4,8,3,,0.00,5,Rain,118
2013-6-6,71,66,62,72,66,55,100,92,64,30.07,29.95,29.85,10,9,3,10,6,21,0.31,8,Rain,141
2013-6-7,69,68,68,70,69,68,100,100,100,29.88,29.73,29.59,10,8,2,13,4,22,1.51,8,Rain,14
2013-6-8,78,70,62,70,66,63,100,88,57,30.13,29.99,29.85,10,8,2,8,2,16,0.14,4,Rain,283
2013-6-9,86,74,62,72,67,63,100,83,55,30.20,30.14,30.09,10,8,2,9,2,,0.06,3,Rain,177
2013-6-10,80,74,69,75,71,70,100,96,74,30.14,30.02,29.91,10,10,1,15,6,32,0.30,7,Rain-Thunderstorm,207
2013-6-11,82,74,66,70,66,63,100,80,51,29.98,29.95,29.92,10,10,7,9,5,17,0.01,4,Rain,251
2013-6-12,87,74,60,73,68,61,100,81,58,30.00,29.96,29.90,10,9,3,10,2,,0.00,1,,232
2013-6-13,91,78,64,75,70,63,100,81,46,29.90,29.76,29.63,10,10,2,18,4,28,0.29,1,Rain-Thunderstorm,244
2013-6-14,77,67,57,64,57,54,100,72,44,30.05,29.91,29.77,10,10,7,16,4,22,0.00,2,,345
2013-6-15,80,66,53,64,59,54,100,76,42,30.16,30.10,30.05,10,9,2,10,1,,0.00,1,,262
2013-6-16,84,72,60,68,65,61,100,75,55,30.14,30.08,30.03,10,9,1,13,5,21,0.00,2,,226
2013-6-17,80,74,69,72,68,64,100,80,70,30.06,30.02,29.96,10,8,1,8,5,,0.00,3,Rain-Thunderstorm,212
2013-6-18,78,71,64,72,70,64,100,93,74,30.00,29.90,29.80,10,9,1,10,5,,0.42,5,Rain-Thunderstorm,221
2013-6-19,77,68,60,70,64,61,100,86,65,30.17,30.04,29.92,10,8,0,10,3,,0.00,3,Fog,62
2013-6-20,78,69,60,64,61,55,100,77,51,30.28,30.24,30.17,10,8,2,10,2,,0.00,2,,84
2013-6-21,80,66,53,63,56,48,100,70,32,30.31,30.28,30.24,10,10,10,10,3,16,0.00,0,,48
2013-6-22,80,71,62,73,68,63,100,93,65,30.26,30.23,30.17,10,9,2,13,4,17,0.06,7,Rain,45
2013-6-23,84,76,68,73,70,68,100,86,58,30.25,30.20,30.16,10,8,0,9,1,,0.00,5,Fog-Rain-Thunderstorm,191
2013-6-24,86,77,68,75,71,68,100,87,62,30.25,30.19,30.12,10,10,5,12,4,20,0.04,4,Rain-Thunderstorm,216
2013-6-25,87,78,68,73,70,68,100,81,52,30.15,30.10,30.03,10,10,7,12,4,,0.00,2,Thunderstorm,226
2013-6-26,87,78,68,72,69,66,100,85,55,30.05,29.99,29.92,10,10,1,10,4,22,0.52,2,Rain-Thunderstorm,222
2013-6-27,86,76,66,73,70,66,100,85,58,29.96,29.84,29.75,10,9,2,13,6,24,0.37,4,Rain-Thunderstorm,227
2013-6-28,87,78,69,73,71,68,100,85,52,29.78,29.69,29.60,10,8,1,14,4,38,1.04,2,Rain-Thunderstorm,232
2013-6-29,82,75,68,72,70,68,100,86,62,29.76,29.69,29.63,10,9,2,12,4,16,0.18,3,Rain-Thunderstorm,202
2013-6-30,82,75,68,73,70,68,100,92,66,29.90,29.82,29.75,10,10,2,8,4,,0.34,6,Rain-Thunderstorm,186